Milton, Kentucky
Current Conditions -  °F | °C
As of 7:53 AM on Saturday 01 Nov 2014 (Local Time) from KLOU Reporting Station
Overcast Overcast  
Wind Chill: 27°   Ceiling: 6000
Heat Index: 35°   Visibility: 10mi
Dew Point: 26°   Wind: 12mph
Humidity: 70%   Direction: 340°NNW
Pressure: 30.22"   Gusts: 24mph
Location:  38.72°N, 85.37°W
Report Text: KLOU 011153Z 34010G21KT 10SM SCT027 OVC060 02/M03 A3022 RMK AO2 SLP238 60000 70028 T00171033 10028 20017 51024
Loading
Personal Weather Stations






























Interactive Weather Map
Tropical Storm Tracking
New forecast layout! Learn more

10-Day Weather Forecast

Advertisements
Track Severe Weather on mobile